• Join FlightAware (Why Join?)
  • Login
  • US Flag 
07:57PM EDT


 

Airport Tracker/Info


-or-


 

Live Flight TrackerFlight Track Log ✈ CTL16 ✈ 03-Jul-2013 ✈ KHAO - KBKL

Flight Track Log - Related Links

Times and Time Zones

All times are in EDT time to prevent confusion due to time zone crossing. See the CTL16 flight status page for this flight to view local times or setup timezone preferences in your user account.

Time Position Orientation Groundspeed Altitude Reporting Facility
EDT Latitude Longitude Course Direction KTS MPH feet Rate Location/Type
08:40PM 39.3833 -84.5333 41° Northeast 127 146 1,500  Level Cincinnati TRACON
08:41PM 39.4108 -84.5025 41° Northeast 146 168 2,300 720 Climbing Indianapolis Center
08:42PM 39.4406 -84.4617 47° Northeast 153 176 3,000 720 Climbing Indianapolis Center
08:43PM 39.4633 -84.4311 46° Northeast 156 180 3,600 720 Climbing Indianapolis Center
08:44PM 39.4981 -84.3928 40° Northeast 159 183 4,300 660 Climbing Indianapolis Center
08:45PM 39.5331 -84.3531 41° Northeast 162 186 5,000 360 Climbing Indianapolis Center
08:46PM 39.5681 -84.3103 43° Northeast 167 192 5,100  Climbing Indianapolis Center
08:47PM 39.6069 -84.2650 42° Northeast 177 204 5,100  Level Indianapolis Center
08:48PM 39.6469 -84.2194 41° Northeast 184 212 5,100  Level Indianapolis Center
08:49PM 39.6867 -84.1742 41° Northeast 187 215 5,100  Level Indianapolis Center
08:50PM 39.7258 -84.1294 41° Northeast 187 215 5,100  Level Indianapolis Center
08:51PM 39.7714 -84.0756 42° Northeast 187 215 5,100  Level Indianapolis Center
08:52PM 39.8108 -84.0303 41° Northeast 187 215 5,100  Level Indianapolis Center
08:53PM 39.8486 -83.9842 43° Northeast 186 214 5,100  Level Indianapolis Center
08:54PM 39.8906 -83.9292 45° Northeast 186 214 5,100  Level Indianapolis Center
08:55PM 39.9228 -83.8881 44° Northeast 186 214 5,100  Level Indianapolis Center
08:56PM 39.9683 -83.8278 45° Northeast 188 216 5,100  Level Indianapolis Center
08:57PM 39.9983 -83.7908 43° Northeast 188 216 5,100  Level Indianapolis Center
08:58PM 40.0417 -83.7483 37° Northeast 190 219 5,100  Level Indianapolis Center
08:59PM 40.0889 -83.6983 39° Northeast 191 220 5,100  Level Indianapolis Center
09:00PM 40.1269 -83.6622 36° Northeast 191 220 5,100  Level Indianapolis Center
09:01PM 40.1683 -83.6197 38° Northeast 189 217 5,100  Level Indianapolis Center
09:02PM 40.2147 -83.5744 37° Northeast 191 220 5,100  Level Indianapolis Center
09:03PM 40.2594 -83.5272 39° Northeast 191 220 5,100  Level Indianapolis Center
09:04PM 40.3017 -83.4850 37° Northeast 186 214 5,100  Level Indianapolis Center
09:05PM 40.3425 -83.4386 41° Northeast 188 216 5,100  Level Indianapolis Center
09:06PM 40.3814 -83.3994 37° Northeast 192 221 5,100  Level Indianapolis Center
09:07PM 40.4261 -83.3494 40° Northeast 192 221 5,100  Level Indianapolis Center
09:08PM 40.4686 -83.3078 37° Northeast 189 217 5,100  Level Indianapolis Center
09:09PM 40.5100 -83.2628 40° Northeast 191 220 5,100  Level Indianapolis Center
09:10PM 40.5506 -83.2192 39° Northeast 187 215 5,100  Level Indianapolis Center
09:11PM 40.5925 -83.1731 40° Northeast 194 223 5,100  Level Indianapolis Center
09:12PM 40.6300 -83.1275 43° Northeast 191 220 5,100  Level Indianapolis Center
09:13PM 40.6761 -83.0719 42° Northeast 190 219 5,100  Level Indianapolis Center
09:14PM 40.7153 -83.0244 43° Northeast 191 220 5,100  Level Indianapolis Center
09:15PM 40.7544 -82.9756 43° Northeast 192 221 5,100  Level Indianapolis Center
09:16PM 40.7939 -82.9292 42° Northeast 189 217 5,100  Level Indianapolis Center
09:17PM 40.8317 -82.8811 44° Northeast 188 216 5,100  Level Indianapolis Center
09:19PM 40.8697 -82.8328 44° Northeast 188 216 5,100  Level Indianapolis Center
09:20PM 40.9053 -82.7789 49° Northeast 192 221 5,100  Level Indianapolis Center
09:21PM 40.9369 -82.7325 48° Northeast 186 214 5,100  Level Cleveland Center